• Join FlightAware (Why Join?)
  • Login
  • US Flag 
04:10AM EDT


 

Airport Tracker/Info


-or-


 

Live Flight TrackerFlight Track Log ✈ EJA396 ✈ 31-Jul-2013 ✈ KACK - KMMU

Flight Track Log - Related Links

Times and Time Zones

All times are in EDT time to prevent confusion due to time zone crossing. See the EJA396 flight status page for this flight to view local times or setup timezone preferences in your user account.

Time Position Orientation Groundspeed Altitude Reporting Facility
EDT Latitude Longitude Course Direction KTS MPH feet Rate Location/Type
05:03PM 41.2236 -70.2047 258° West 222 255 8,600  Level Boston Center
05:04PM 41.2647 -70.2833 305° West 221 254 13,100 4,080 Climbing Boston Center
05:05PM 41.3058 -70.3564 307° West 234 269 16,700 2,760 Climbing Boston Center
05:06PM 41.3364 -70.4386 296° West 265 305 18,700 2,400 Climbing Boston Center
05:07PM 41.3889 -70.5753 297° West 329 379 21,500 1,620 Climbing Boston Center
05:08PM 41.4300 -70.6708 300° West 355 409 22,000 240 Climbing Boston Center
05:09PM 41.4778 -70.7997 296° West 360 414 22,000  Level Boston Center
05:10PM 41.5144 -70.8931 298° West 360 414 22,000  Level Boston Center
05:11PM 41.5706 -71.0361 298° West 360 414 22,000  Level Boston Center
05:12PM 41.6178 -71.1517 299° West 360 414 22,000  Level Boston Center
05:13PM 41.6608 -71.2675 296° West 360 414 22,000  Level Boston Center
05:14PM 41.7078 -71.3861 298° West 360 414 22,000  Level Boston Center
05:15PM 41.7503 -71.4772 302° West 360 414 22,000  Level Boston Center
05:16PM 41.8158 -71.5989 306° West 354 407 22,000  Level Boston Center
05:17PM 41.8769 -71.7069 307° West 349 402 22,000 -60 Level Boston Center
05:18PM 41.9361 -71.8122 307° West 354 407 21,900 -840 Descending Boston Center
05:19PM 41.9761 -71.9292 295° West 349 402 20,400 -1,620 Descending Boston Center
05:20PM 42.0081 -72.0658 288° West 349 402 18,700 -1,500 Descending Boston Center
05:21PM 42.0333 -72.1772 287° West 349 402 17,400 -1,380 Descending Boston Center
05:22PM 42.0669 -72.3142 288° West 349 402 16,000 -720 Descending Boston Center
05:23PM 42.0919 -72.4233 287° West 343 395 16,000  Level Boston Center
05:24PM 42.1231 -72.5519 288° West 343 395 16,000  Level Boston Center
05:25PM 42.1500 -72.6614 288° West 343 395 16,000  Level Boston Center
05:26PM 42.1581 -72.7872 275° West 336 387 16,000  Level Boston Center
05:27PM 42.1492 -72.9244 265° West 331 381 16,000  Level Boston Center
05:28PM 42.1403 -73.0478 264° West 331 381 16,000  Level Boston Center
05:29PM 42.1333 -73.1764 266° West 331 381 16,000  Level Boston Center
05:30PM 42.1242 -73.2967 264° West 337 388 16,000  Level Boston Center
05:31PM 42.1147 -73.4142 264° West 343 395 16,000  Level Boston Center
05:32PM 42.1053 -73.5369 264° West 343 395 16,000 -60 Level Boston Center
05:33PM 42.0958 -73.6656 264° West 348 400 15,900 -60 Descending Boston Center
05:34PM 42.0858 -73.7997 264° West 343 395 15,900  Level Boston Center
05:35PM 42.0783 -73.9142 265° West 343 395 15,900  Level Boston Center
05:36PM 42.0658 -74.0508 263° West 348 400 15,900  Level Boston Center
05:38PM 41.9239 -74.2064 219° Southwest 321 369 15,900 -600 Level Boston Center
05:39PM 41.8503 -74.2600 208° Southwest 339 390 14,200 -1,860 Descending Boston Center
05:40PM 41.7578 -74.3075 201° Southwest 339 390 12,300 -1,800 Descending Boston Center
05:41PM 41.6781 -74.3356 195° South 325 374 10,600 -1,800 Descending Boston Center
05:42PM 41.6022 -74.3861 207° Southwest 290 334 8,700 -1,680 Descending Boston Center
05:43PM 41.5428 -74.4344 211° Southwest 278 320 7,300 -900 Descending Boston Center
05:44PM 41.4731 -74.4903 211° Southwest 278 320 6,900 -480 Descending Boston Center
05:46PM 41.3500 -74.6000 214° Southwest 266 306 6,000 -420 Descending New York TRACON
05:47PM 41.2833 -74.6167 191° South 271 312 5,800 -960 Descending New York TRACON
05:48PM 41.2167 -74.5500 143° Southeast 258 297 4,100 -1,440 Descending New York TRACON
05:49PM 41.1667 -74.5000 143° Southeast 254 292 3,000 -600 Descending New York TRACON
05:50PM 41.1167 -74.4500 143° Southeast 220 253 3,000  Level New York TRACON
05:51PM 41.0667 -74.4333 166° South 218 251 3,100  Climbing New York TRACON
05:52PM 41.0167 -74.3833 143° Southeast 213 245 3,100 -480 Level New York TRACON
05:53PM 40.9833 -74.3167 124° Southeast 219 252 2,200 -480 Descending New York TRACON
05:54PM 40.9333 -74.3333 194° South 198 228 2,100 -60 Descending New York TRACON
05:55PM 40.8833 -74.3500 194° South 176 203 2,100 -360 Level New York TRACON
05:56PM 40.8500 -74.3667 201° Southwest 114 131 1,400 -660 Descending New York TRACON
05:57PM 40.8333 -74.3833 217° Southwest 112 129 900 -600 Descending New York TRACON
05:59PM 40.7993 -74.4149 199° South  Level Estimated